sensor_id;sensor_type;location;lat;lon;timestamp;P1;durP1;ratioP1;P2;durP2;ratioP2
53207;SDS011;39093;52.788;6.940;2022-11-15T00:00:56;22.73;;;14.98;;
53207;SDS011;39093;52.788;6.940;2022-11-15T00:03:24;19.52;;;14.50;;
53207;SDS011;39093;52.788;6.940;2022-11-15T00:05:52;22.92;;;15.13;;
53207;SDS011;39093;52.788;6.940;2022-11-15T00:08:19;18.08;;;14.07;;
53207;SDS011;39093;52.788;6.940;2022-11-15T00:10:56;22.60;;;15.52;;
53207;SDS011;39093;52.788;6.940;2022-11-15T00:13:23;21.38;;;15.00;;
53207;SDS011;39093;52.788;6.940;2022-11-15T00:15:50;21.08;;;14.68;;
53207;SDS011;39093;52.788;6.940;2022-11-15T00:18:18;20.75;;;14.65;;
53207;SDS011;39093;52.788;6.940;2022-11-15T00:20:45;21.33;;;14.95;;
53207;SDS011;39093;52.788;6.940;2022-11-15T00:23:12;21.73;;;15.80;;
53207;SDS011;39093;52.788;6.940;2022-11-15T00:25:39;22.05;;;15.35;;
53207;SDS011;39093;52.788;6.940;2022-11-15T00:28:06;20.88;;;16.48;;
53207;SDS011;39093;52.788;6.940;2022-11-15T00:30:32;21.60;;;15.18;;
53207;SDS011;39093;52.788;6.940;2022-11-15T00:33:01;23.85;;;17.10;;
53207;SDS011;39093;52.788;6.940;2022-11-15T00:35:30;19.77;;;15.50;;
53207;SDS011;39093;52.788;6.940;2022-11-15T00:37:59;24.33;;;16.73;;
53207;SDS011;39093;52.788;6.940;2022-11-15T00:40:26;21.00;;;16.40;;
53207;SDS011;39093;52.788;6.940;2022-11-15T00:42:53;26.08;;;18.10;;
53207;SDS011;39093;52.788;6.940;2022-11-15T00:45:20;23.30;;;17.63;;
53207;SDS011;39093;52.788;6.940;2022-11-15T00:47:48;23.77;;;16.67;;
53207;SDS011;39093;52.788;6.940;2022-11-15T00:50:15;21.80;;;15.93;;
53207;SDS011;39093;52.788;6.940;2022-11-15T00:52:42;23.50;;;16.55;;
53207;SDS011;39093;52.788;6.940;2022-11-15T00:55:13;24.75;;;16.63;;
53207;SDS011;39093;52.788;6.940;2022-11-15T00:57:41;28.10;;;18.50;;
53207;SDS011;39093;52.788;6.940;2022-11-15T01:00:09;23.42;;;16.63;;
53207;SDS011;39093;52.788;6.940;2022-11-15T01:02:36;23.77;;;16.85;;
53207;SDS011;39093;52.788;6.940;2022-11-15T01:05:03;26.20;;;16.58;;
53207;SDS011;39093;52.788;6.940;2022-11-15T01:07:30;26.52;;;16.75;;
53207;SDS011;39093;52.788;6.940;2022-11-15T01:09:57;26.98;;;16.35;;
53207;SDS011;39093;52.788;6.940;2022-11-15T01:12:24;25.10;;;17.35;;
53207;SDS011;39093;52.788;6.940;2022-11-15T01:14:51;27.17;;;16.15;;
53207;SDS011;39093;52.788;6.940;2022-11-15T01:17:18;25.55;;;17.63;;
53207;SDS011;39093;52.788;6.940;2022-11-15T01:19:45;25.17;;;17.50;;
53207;SDS011;39093;52.788;6.940;2022-11-15T01:22:12;25.25;;;15.88;;
53207;SDS011;39093;52.788;6.940;2022-11-15T01:24:39;27.45;;;17.45;;
53207;SDS011;39093;52.788;6.940;2022-11-15T01:27:05;25.63;;;16.98;;
53207;SDS011;39093;52.788;6.940;2022-11-15T01:29:33;24.15;;;17.17;;
53207;SDS011;39093;52.788;6.940;2022-11-15T01:31:59;25.33;;;17.00;;
53207;SDS011;39093;52.788;6.940;2022-11-15T01:34:26;26.75;;;16.40;;
53207;SDS011;39093;52.788;6.940;2022-11-15T01:36:53;28.45;;;16.70;;
53207;SDS011;39093;52.788;6.940;2022-11-15T01:39:20;27.92;;;17.02;;
53207;SDS011;39093;52.788;6.940;2022-11-15T01:41:47;28.50;;;16.45;;
53207;SDS011;39093;52.788;6.940;2022-11-15T01:47:00;24.17;;;15.38;;
53207;SDS011;39093;52.788;6.940;2022-11-15T01:49:32;25.30;;;16.27;;
53207;SDS011;39093;52.788;6.940;2022-11-15T01:52:02;24.10;;;16.15;;
53207;SDS011;39093;52.788;6.940;2022-11-15T01:54:32;27.30;;;16.63;;
53207;SDS011;39093;52.788;6.940;2022-11-15T01:57:00;27.73;;;16.23;;
53207;SDS011;39093;52.788;6.940;2022-11-15T01:59:29;23.67;;;16.13;;
53207;SDS011;39093;52.788;6.940;2022-11-15T02:01:57;25.67;;;16.33;;
53207;SDS011;39093;52.788;6.940;2022-11-15T02:04:24;25.60;;;15.60;;
53207;SDS011;39093;52.788;6.940;2022-11-15T02:06:53;22.02;;;15.77;;
53207;SDS011;39093;52.788;6.940;2022-11-15T02:09:20;26.05;;;16.00;;
53207;SDS011;39093;52.788;6.940;2022-11-15T02:11:47;25.20;;;16.10;;
53207;SDS011;39093;52.788;6.940;2022-11-15T02:14:17;25.23;;;16.38;;
53207;SDS011;39093;52.788;6.940;2022-11-15T02:17:01;29.75;;;17.30;;
53207;SDS011;39093;52.788;6.940;2022-11-15T02:33:27;29.60;;;18.05;;
53207;SDS011;39093;52.788;6.940;2022-11-15T02:36:09;31.02;;;16.00;;
53207;SDS011;39093;52.788;6.940;2022-11-15T02:42:02;28.40;;;18.15;;
53207;SDS011;39093;52.788;6.940;2022-11-15T02:44:53;29.58;;;17.90;;
53207;SDS011;39093;52.788;6.940;2022-11-15T02:47:24;31.67;;;18.45;;
53207;SDS011;39093;52.788;6.940;2022-11-15T02:49:54;29.13;;;17.90;;
53207;SDS011;39093;52.788;6.940;2022-11-15T02:52:25;27.73;;;17.63;;
53207;SDS011;39093;52.788;6.940;2022-11-15T02:54:57;34.90;;;19.67;;
53207;SDS011;39093;52.788;6.940;2022-11-15T03:00:34;34.65;;;20.00;;
53207;SDS011;39093;52.788;6.940;2022-11-15T03:06:09;28.35;;;17.50;;
53207;SDS011;39093;52.788;6.940;2022-11-15T03:08:49;30.70;;;18.58;;
53207;SDS011;39093;52.788;6.940;2022-11-15T03:12:05;32.65;;;18.98;;
53207;SDS011;39093;52.788;6.940;2022-11-15T03:14:43;32.85;;;19.35;;
53207;SDS011;39093;52.788;6.940;2022-11-15T03:17:26;36.20;;;20.10;;
53207;SDS011;39093;52.788;6.940;2022-11-15T03:19:56;34.60;;;20.52;;
53207;SDS011;39093;52.788;6.940;2022-11-15T03:22:26;36.38;;;21.45;;
53207;SDS011;39093;52.788;6.940;2022-11-15T03:24:57;37.90;;;21.23;;
53207;SDS011;39093;52.788;6.940;2022-11-15T03:27:29;36.67;;;21.98;;
53207;SDS011;39093;52.788;6.940;2022-11-15T03:30:03;37.83;;;21.38;;
53207;SDS011;39093;52.788;6.940;2022-11-15T03:32:35;35.85;;;22.02;;
53207;SDS011;39093;52.788;6.940;2022-11-15T03:35:08;43.42;;;24.52;;
53207;SDS011;39093;52.788;6.940;2022-11-15T03:37:40;48.35;;;26.50;;
53207;SDS011;39093;52.788;6.940;2022-11-15T03:40:13;42.67;;;23.30;;
53207;SDS011;39093;52.788;6.940;2022-11-15T03:42:54;57.47;;;25.25;;
53207;SDS011;39093;52.788;6.940;2022-11-15T03:45:36;49.45;;;26.35;;
53207;SDS011;39093;52.788;6.940;2022-11-15T03:48:30;51.22;;;25.95;;
53207;SDS011;39093;52.788;6.940;2022-11-15T03:50:59;50.55;;;26.48;;
53207;SDS011;39093;52.788;6.940;2022-11-15T03:53:27;47.35;;;26.77;;
53207;SDS011;39093;52.788;6.940;2022-11-15T03:55:55;48.13;;;26.13;;
53207;SDS011;39093;52.788;6.940;2022-11-15T03:58:21;43.92;;;26.73;;
53207;SDS011;39093;52.788;6.940;2022-11-15T04:00:48;46.97;;;26.67;;
53207;SDS011;39093;52.788;6.940;2022-11-15T04:03:15;53.25;;;28.52;;
53207;SDS011;39093;52.788;6.940;2022-11-15T04:05:42;49.00;;;27.42;;
53207;SDS011;39093;52.788;6.940;2022-11-15T04:08:09;55.92;;;30.10;;
53207;SDS011;39093;52.788;6.940;2022-11-15T04:10:36;53.67;;;28.67;;
53207;SDS011;39093;52.788;6.940;2022-11-15T04:13:02;53.88;;;28.48;;
53207;SDS011;39093;52.788;6.940;2022-11-15T04:15:29;57.88;;;29.52;;
53207;SDS011;39093;52.788;6.940;2022-11-15T04:17:57;61.03;;;31.65;;
53207;SDS011;39093;52.788;6.940;2022-11-15T04:20:28;65.78;;;30.65;;
53207;SDS011;39093;52.788;6.940;2022-11-15T04:26:03;62.92;;;34.05;;
53207;SDS011;39093;52.788;6.940;2022-11-15T04:28:33;60.78;;;32.80;;
53207;SDS011;39093;52.788;6.940;2022-11-15T04:31:00;62.13;;;30.70;;
53207;SDS011;39093;52.788;6.940;2022-11-15T04:33:27;54.28;;;31.55;;
53207;SDS011;39093;52.788;6.940;2022-11-15T04:35:54;62.70;;;31.88;;
53207;SDS011;39093;52.788;6.940;2022-11-15T04:38:40;62.55;;;29.70;;
53207;SDS011;39093;52.788;6.940;2022-11-15T04:41:06;53.58;;;30.40;;
53207;SDS011;39093;52.788;6.940;2022-11-15T04:43:33;59.83;;;30.33;;
53207;SDS011;39093;52.788;6.940;2022-11-15T04:46:00;59.80;;;29.77;;
53207;SDS011;39093;52.788;6.940;2022-11-15T04:48:27;55.05;;;28.58;;
53207;SDS011;39093;52.788;6.940;2022-11-15T04:50:54;59.88;;;27.75;;
53207;SDS011;39093;52.788;6.940;2022-11-15T04:53:21;52.10;;;28.70;;
53207;SDS011;39093;52.788;6.940;2022-11-15T04:55:48;45.90;;;27.30;;
53207;SDS011;39093;52.788;6.940;2022-11-15T04:58:14;47.38;;;27.52;;
53207;SDS011;39093;52.788;6.940;2022-11-15T05:00:41;55.88;;;29.52;;
53207;SDS011;39093;52.788;6.940;2022-11-15T05:03:08;43.35;;;26.48;;
53207;SDS011;39093;52.788;6.940;2022-11-15T05:05:55;40.28;;;25.83;;
53207;SDS011;39093;52.788;6.940;2022-11-15T05:08:24;51.80;;;27.85;;
53207;SDS011;39093;52.788;6.940;2022-11-15T05:10:51;44.00;;;26.23;;
53207;SDS011;39093;52.788;6.940;2022-11-15T05:13:17;47.28;;;27.33;;
53207;SDS011;39093;52.788;6.940;2022-11-15T05:15:44;45.97;;;26.38;;
53207;SDS011;39093;52.788;6.940;2022-11-15T05:18:11;47.97;;;28.15;;
53207;SDS011;39093;52.788;6.940;2022-11-15T05:20:38;43.47;;;26.30;;
53207;SDS011;39093;52.788;6.940;2022-11-15T05:23:05;48.97;;;26.83;;
53207;SDS011;39093;52.788;6.940;2022-11-15T05:25:32;41.72;;;25.67;;
53207;SDS011;39093;52.788;6.940;2022-11-15T05:27:58;43.88;;;27.80;;
53207;SDS011;39093;52.788;6.940;2022-11-15T05:30:25;46.50;;;26.63;;
53207;SDS011;39093;52.788;6.940;2022-11-15T05:32:52;44.38;;;25.58;;
53207;SDS011;39093;52.788;6.940;2022-11-15T05:35:29;44.97;;;25.35;;
53207;SDS011;39093;52.788;6.940;2022-11-15T05:40:29;45.28;;;24.33;;
53207;SDS011;39093;52.788;6.940;2022-11-15T05:42:57;42.28;;;24.63;;
53207;SDS011;39093;52.788;6.940;2022-11-15T05:45:26;41.42;;;24.92;;
53207;SDS011;39093;52.788;6.940;2022-11-15T05:47:54;42.13;;;25.42;;
53207;SDS011;39093;52.788;6.940;2022-11-15T05:50:23;42.83;;;25.45;;
53207;SDS011;39093;52.788;6.940;2022-11-15T05:52:51;38.38;;;24.05;;
53207;SDS011;39093;52.788;6.940;2022-11-15T05:55:18;39.78;;;24.40;;
53207;SDS011;39093;52.788;6.940;2022-11-15T05:57:45;40.97;;;23.67;;
53207;SDS011;39093;52.788;6.940;2022-11-15T06:00:12;45.22;;;25.70;;
53207;SDS011;39093;52.788;6.940;2022-11-15T06:02:39;35.80;;;22.92;;
53207;SDS011;39093;52.788;6.940;2022-11-15T06:05:06;43.33;;;24.02;;
53207;SDS011;39093;52.788;6.940;2022-11-15T06:07:33;34.03;;;23.35;;
53207;SDS011;39093;52.788;6.940;2022-11-15T06:10:00;37.13;;;22.98;;
53207;SDS011;39093;52.788;6.940;2022-11-15T06:12:27;41.38;;;24.17;;
53207;SDS011;39093;52.788;6.940;2022-11-15T06:14:54;36.33;;;22.40;;
53207;SDS011;39093;52.788;6.940;2022-11-15T06:17:20;33.15;;;22.73;;
53207;SDS011;39093;52.788;6.940;2022-11-15T06:19:47;35.33;;;22.42;;
53207;SDS011;39093;52.788;6.940;2022-11-15T06:22:14;35.53;;;22.90;;
53207;SDS011;39093;52.788;6.940;2022-11-15T06:24:41;37.88;;;23.98;;
53207;SDS011;39093;52.788;6.940;2022-11-15T06:27:12;34.55;;;22.73;;
53207;SDS011;39093;52.788;6.940;2022-11-15T06:29:39;32.28;;;21.67;;
53207;SDS011;39093;52.788;6.940;2022-11-15T06:32:06;32.65;;;22.92;;
53207;SDS011;39093;52.788;6.940;2022-11-15T06:34:33;37.08;;;22.15;;
53207;SDS011;39093;52.788;6.940;2022-11-15T06:37:02;31.15;;;20.88;;
53207;SDS011;39093;52.788;6.940;2022-11-15T06:39:29;30.38;;;20.85;;
53207;SDS011;39093;52.788;6.940;2022-11-15T06:41:55;27.75;;;20.90;;
53207;SDS011;39093;52.788;6.940;2022-11-15T06:44:22;32.60;;;22.40;;
53207;SDS011;39093;52.788;6.940;2022-11-15T06:46:49;35.47;;;22.02;;
53207;SDS011;39093;52.788;6.940;2022-11-15T06:49:16;34.42;;;22.27;;
53207;SDS011;39093;52.788;6.940;2022-11-15T06:51:43;36.72;;;22.55;;
53207;SDS011;39093;52.788;6.940;2022-11-15T06:54:09;34.70;;;21.38;;
53207;SDS011;39093;52.788;6.940;2022-11-15T06:56:36;30.48;;;20.02;;
53207;SDS011;39093;52.788;6.940;2022-11-15T06:59:03;34.38;;;21.55;;
53207;SDS011;39093;52.788;6.940;2022-11-15T07:01:30;30.38;;;21.63;;
53207;SDS011;39093;52.788;6.940;2022-11-15T07:03:57;32.50;;;21.60;;
53207;SDS011;39093;52.788;6.940;2022-11-15T07:06:24;30.23;;;20.38;;
53207;SDS011;39093;52.788;6.940;2022-11-15T07:08:50;31.02;;;20.20;;
53207;SDS011;39093;52.788;6.940;2022-11-15T07:11:17;29.02;;;20.52;;
53207;SDS011;39093;52.788;6.940;2022-11-15T07:13:44;35.00;;;20.45;;
53207;SDS011;39093;52.788;6.940;2022-11-15T07:16:11;32.30;;;20.48;;
53207;SDS011;39093;52.788;6.940;2022-11-15T07:18:38;35.42;;;20.50;;
53207;SDS011;39093;52.788;6.940;2022-11-15T07:21:07;31.33;;;20.80;;
53207;SDS011;39093;52.788;6.940;2022-11-15T07:23:39;28.20;;;18.95;;
53207;SDS011;39093;52.788;6.940;2022-11-15T07:26:06;28.80;;;19.63;;
53207;SDS011;39093;52.788;6.940;2022-11-15T07:28:34;31.02;;;19.73;;
53207;SDS011;39093;52.788;6.940;2022-11-15T07:31:02;33.83;;;20.00;;
53207;SDS011;39093;52.788;6.940;2022-11-15T07:33:34;28.92;;;19.90;;
53207;SDS011;39093;52.788;6.940;2022-11-15T07:36:02;28.42;;;20.08;;
53207;SDS011;39093;52.788;6.940;2022-11-15T07:38:30;36.30;;;19.60;;
53207;SDS011;39093;52.788;6.940;2022-11-15T07:40:58;33.15;;;19.27;;
53207;SDS011;39093;52.788;6.940;2022-11-15T07:43:26;30.77;;;19.67;;
53207;SDS011;39093;52.788;6.940;2022-11-15T07:45:57;27.33;;;19.73;;
53207;SDS011;39093;52.788;6.940;2022-11-15T07:48:25;23.70;;;18.70;;
53207;SDS011;39093;52.788;6.940;2022-11-15T07:51:10;30.25;;;18.52;;
53207;SDS011;39093;52.788;6.940;2022-11-15T07:53:44;25.15;;;18.70;;
53207;SDS011;39093;52.788;6.940;2022-11-15T07:56:11;27.38;;;19.27;;
53207;SDS011;39093;52.788;6.940;2022-11-15T07:58:38;33.35;;;21.15;;
53207;SDS011;39093;52.788;6.940;2022-11-15T08:01:06;27.40;;;19.27;;
53207;SDS011;39093;52.788;6.940;2022-11-15T08:03:41;29.95;;;19.45;;
53207;SDS011;39093;52.788;6.940;2022-11-15T08:06:08;40.40;;;21.45;;
53207;SDS011;39093;52.788;6.940;2022-11-15T08:08:35;31.17;;;20.70;;
53207;SDS011;39093;52.788;6.940;2022-11-15T08:11:02;30.73;;;21.08;;
53207;SDS011;39093;52.788;6.940;2022-11-15T08:13:29;36.83;;;22.48;;
53207;SDS011;39093;52.788;6.940;2022-11-15T08:15:57;30.88;;;22.95;;
53207;SDS011;39093;52.788;6.940;2022-11-15T08:18:25;34.55;;;22.98;;
53207;SDS011;39093;52.788;6.940;2022-11-15T08:20:52;38.45;;;24.13;;
53207;SDS011;39093;52.788;6.940;2022-11-15T08:23:18;36.13;;;24.63;;
53207;SDS011;39093;52.788;6.940;2022-11-15T08:25:45;30.02;;;22.58;;
53207;SDS011;39093;52.788;6.940;2022-11-15T08:28:12;36.33;;;24.63;;
53207;SDS011;39093;52.788;6.940;2022-11-15T08:30:40;30.67;;;23.25;;
53207;SDS011;39093;52.788;6.940;2022-11-15T08:33:12;36.17;;;23.27;;
53207;SDS011;39093;52.788;6.940;2022-11-15T08:35:40;33.38;;;22.48;;
53207;SDS011;39093;52.788;6.940;2022-11-15T08:38:08;36.95;;;25.23;;
53207;SDS011;39093;52.788;6.940;2022-11-15T08:40:36;35.95;;;25.15;;
53207;SDS011;39093;52.788;6.940;2022-11-15T08:43:03;37.20;;;24.60;;
53207;SDS011;39093;52.788;6.940;2022-11-15T08:45:31;37.45;;;24.40;;
53207;SDS011;39093;52.788;6.940;2022-11-15T08:48:00;39.03;;;24.73;;
53207;SDS011;39093;52.788;6.940;2022-11-15T08:50:28;30.48;;;22.08;;
53207;SDS011;39093;52.788;6.940;2022-11-15T08:52:55;35.85;;;24.38;;
53207;SDS011;39093;52.788;6.940;2022-11-15T08:55:22;31.05;;;22.80;;
53207;SDS011;39093;52.788;6.940;2022-11-15T08:57:50;36.58;;;25.08;;
53207;SDS011;39093;52.788;6.940;2022-11-15T09:00:17;36.33;;;24.42;;
53207;SDS011;39093;52.788;6.940;2022-11-15T09:02:45;31.20;;;24.20;;
53207;SDS011;39093;52.788;6.940;2022-11-15T09:05:12;34.92;;;24.17;;
53207;SDS011;39093;52.788;6.940;2022-11-15T09:07:41;33.55;;;24.08;;
53207;SDS011;39093;52.788;6.940;2022-11-15T09:10:08;32.33;;;23.80;;
53207;SDS011;39093;52.788;6.940;2022-11-15T09:12:35;32.10;;;25.05;;
53207;SDS011;39093;52.788;6.940;2022-11-15T09:15:03;35.10;;;24.73;;
53207;SDS011;39093;52.788;6.940;2022-11-15T09:17:31;31.10;;;23.38;;
53207;SDS011;39093;52.788;6.940;2022-11-15T09:19:58;29.65;;;23.40;;
53207;SDS011;39093;52.788;6.940;2022-11-15T09:22:24;32.60;;;23.58;;
53207;SDS011;39093;52.788;6.940;2022-11-15T09:24:51;35.55;;;24.67;;
53207;SDS011;39093;52.788;6.940;2022-11-15T09:27:18;40.33;;;28.58;;
53207;SDS011;39093;52.788;6.940;2022-11-15T09:29:45;34.47;;;24.50;;
53207;SDS011;39093;52.788;6.940;2022-11-15T09:32:12;31.38;;;23.55;;
53207;SDS011;39093;52.788;6.940;2022-11-15T09:34:38;33.13;;;24.42;;
53207;SDS011;39093;52.788;6.940;2022-11-15T09:37:06;29.98;;;22.67;;
53207;SDS011;39093;52.788;6.940;2022-11-15T09:39:33;31.00;;;22.70;;
53207;SDS011;39093;52.788;6.940;2022-11-15T09:42:06;30.85;;;22.10;;
53207;SDS011;39093;52.788;6.940;2022-11-15T09:45:31;28.45;;;22.90;;
53207;SDS011;39093;52.788;6.940;2022-11-15T09:47:57;35.47;;;24.10;;
53207;SDS011;39093;52.788;6.940;2022-11-15T09:53:13;31.55;;;24.35;;
53207;SDS011;39093;52.788;6.940;2022-11-15T09:56:13;29.63;;;23.25;;
53207;SDS011;39093;52.788;6.940;2022-11-15T10:01:34;33.72;;;23.05;;
53207;SDS011;39093;52.788;6.940;2022-11-15T10:04:27;31.13;;;22.83;;
53207;SDS011;39093;52.788;6.940;2022-11-15T10:07:06;31.50;;;20.88;;
53207;SDS011;39093;52.788;6.940;2022-11-15T10:12:19;30.70;;;21.50;;
53207;SDS011;39093;52.788;6.940;2022-11-15T10:14:46;25.52;;;19.15;;
53207;SDS011;39093;52.788;6.940;2022-11-15T10:17:42;31.70;;;20.00;;
53207;SDS011;39093;52.788;6.940;2022-11-15T10:20:34;27.25;;;17.85;;
53207;SDS011;39093;52.788;6.940;2022-11-15T10:23:18;21.58;;;16.95;;
53207;SDS011;39093;52.788;6.940;2022-11-15T10:25:47;22.80;;;17.92;;
53207;SDS011;39093;52.788;6.940;2022-11-15T10:28:26;25.52;;;16.52;;
53207;SDS011;39093;52.788;6.940;2022-11-15T10:30:58;22.92;;;16.88;;
53207;SDS011;39093;52.788;6.940;2022-11-15T10:33:34;26.45;;;17.45;;
53207;SDS011;39093;52.788;6.940;2022-11-15T10:41:36;23.50;;;18.48;;
53207;SDS011;39093;52.788;6.940;2022-11-15T10:46:34;20.70;;;18.33;;
53207;SDS011;39093;52.788;6.940;2022-11-15T10:49:19;26.98;;;20.85;;
53207;SDS011;39093;52.788;6.940;2022-11-15T10:51:48;23.00;;;18.80;;
53207;SDS011;39093;52.788;6.940;2022-11-15T10:54:29;24.85;;;17.08;;
53207;SDS011;39093;52.788;6.940;2022-11-15T10:57:07;20.60;;;17.45;;
53207;SDS011;39093;52.788;6.940;2022-11-15T10:59:38;22.93;;;17.13;;
53207;SDS011;39093;52.788;6.940;2022-11-15T11:05:24;19.80;;;17.13;;
53207;SDS011;39093;52.788;6.940;2022-11-15T11:08:36;17.90;;;15.60;;
53207;SDS011;39093;52.788;6.940;2022-11-15T11:10:55;17.48;;;15.55;;
53207;SDS011;39093;52.788;6.940;2022-11-15T11:16:09;13.10;;;11.70;;
53207;SDS011;39093;52.788;6.940;2022-11-15T11:24:36;11.45;;;7.90;;
53207;SDS011;39093;52.788;6.940;2022-11-15T11:29:55;7.38;;;5.38;;
53207;SDS011;39093;52.788;6.940;2022-11-15T11:37:52;8.93;;;4.88;;
53207;SDS011;39093;52.788;6.940;2022-11-15T11:48:51;9.20;;;4.38;;
53207;SDS011;39093;52.788;6.940;2022-11-15T11:51:41;8.43;;;4.38;;
53207;SDS011;39093;52.788;6.940;2022-11-15T11:56:43;13.65;;;8.82;;
53207;SDS011;39093;52.788;6.940;2022-11-15T12:02:10;6.97;;;3.58;;
53207;SDS011;39093;52.788;6.940;2022-11-15T12:04:54;8.15;;;3.03;;
53207;SDS011;39093;52.788;6.940;2022-11-15T12:07:30;9.20;;;3.45;;
53207;SDS011;39093;52.788;6.940;2022-11-15T12:12:54;8.40;;;2.92;;
53207;SDS011;39093;52.788;6.940;2022-11-15T12:15:29;5.53;;;3.10;;
53207;SDS011;39093;52.788;6.940;2022-11-15T12:18:02;5.95;;;3.38;;
53207;SDS011;39093;52.788;6.940;2022-11-15T12:20:32;6.75;;;3.05;;
53207;SDS011;39093;52.788;6.940;2022-11-15T12:23:08;6.63;;;3.17;;
53207;SDS011;39093;52.788;6.940;2022-11-15T12:25:49;6.45;;;2.53;;
53207;SDS011;39093;52.788;6.940;2022-11-15T12:28:39;7.93;;;2.78;;
53207;SDS011;39093;52.788;6.940;2022-11-15T12:31:43;8.13;;;2.97;;
53207;SDS011;39093;52.788;6.940;2022-11-15T12:36:50;5.40;;;2.50;;
53207;SDS011;39093;52.788;6.940;2022-11-15T12:39:18;8.73;;;3.45;;
53207;SDS011;39093;52.788;6.940;2022-11-15T12:49:42;4.43;;;2.47;;
53207;SDS011;39093;52.788;6.940;2022-11-15T12:52:10;5.95;;;2.70;;
53207;SDS011;39093;52.788;6.940;2022-11-15T12:59:52;4.47;;;2.10;;
53207;SDS011;39093;52.788;6.940;2022-11-15T13:02:30;2.75;;;1.90;;
53207;SDS011;39093;52.788;6.940;2022-11-15T13:17:39;8.90;;;3.50;;
53207;SDS011;39093;52.788;6.940;2022-11-15T13:22:41;4.82;;;2.20;;
53207;SDS011;39093;52.788;6.940;2022-11-15T13:25:26;2.25;;;1.30;;
53207;SDS011;39093;52.788;6.940;2022-11-15T13:28:24;3.60;;;1.90;;
53207;SDS011;39093;52.788;6.940;2022-11-15T13:31:13;2.55;;;1.60;;
53207;SDS011;39093;52.788;6.940;2022-11-15T13:33:49;5.10;;;1.90;;
53207;SDS011;39093;52.788;6.940;2022-11-15T13:36:21;1.98;;;1.48;;
53207;SDS011;39093;52.788;6.940;2022-11-15T13:38:57;2.77;;;2.10;;
53207;SDS011;39093;52.788;6.940;2022-11-15T13:41:29;3.90;;;2.00;;
53207;SDS011;39093;52.788;6.940;2022-11-15T13:43:59;2.97;;;1.65;;
53207;SDS011;39093;52.788;6.940;2022-11-15T13:46:28;2.17;;;1.65;;
53207;SDS011;39093;52.788;6.940;2022-11-15T13:49:03;3.15;;;1.80;;
53207;SDS011;39093;52.788;6.940;2022-11-15T13:56:41;6.70;;;1.83;;
53207;SDS011;39093;52.788;6.940;2022-11-15T13:59:24;3.45;;;1.70;;
53207;SDS011;39093;52.788;6.940;2022-11-15T14:01:53;3.10;;;2.08;;
53207;SDS011;39093;52.788;6.940;2022-11-15T14:04:22;3.88;;;1.75;;
53207;SDS011;39093;52.788;6.940;2022-11-15T14:06:56;2.47;;;1.95;;
53207;SDS011;39093;52.788;6.940;2022-11-15T14:09:30;4.63;;;1.90;;
53207;SDS011;39093;52.788;6.940;2022-11-15T14:14:52;3.05;;;1.55;;
53207;SDS011;39093;52.788;6.940;2022-11-15T14:17:20;4.18;;;2.20;;
53207;SDS011;39093;52.788;6.940;2022-11-15T14:19:59;4.65;;;2.10;;
53207;SDS011;39093;52.788;6.940;2022-11-15T14:22:30;2.97;;;1.92;;
53207;SDS011;39093;52.788;6.940;2022-11-15T14:25:12;4.07;;;2.38;;
53207;SDS011;39093;52.788;6.940;2022-11-15T14:27:43;3.08;;;2.40;;
53207;SDS011;39093;52.788;6.940;2022-11-15T14:30:17;5.25;;;2.10;;
53207;SDS011;39093;52.788;6.940;2022-11-15T14:32:48;3.15;;;2.25;;
53207;SDS011;39093;52.788;6.940;2022-11-15T14:35:20;3.50;;;2.63;;
53207;SDS011;39093;52.788;6.940;2022-11-15T14:37:48;3.13;;;2.37;;
53207;SDS011;39093;52.788;6.940;2022-11-15T14:40:17;3.97;;;2.28;;
53207;SDS011;39093;52.788;6.940;2022-11-15T14:42:47;3.85;;;2.08;;
53207;SDS011;39093;52.788;6.940;2022-11-15T14:45:16;2.85;;;2.20;;
53207;SDS011;39093;52.788;6.940;2022-11-15T14:47:47;4.53;;;3.17;;
53207;SDS011;39093;52.788;6.940;2022-11-15T14:50:16;5.15;;;2.83;;
53207;SDS011;39093;52.788;6.940;2022-11-15T14:52:45;11.75;;;3.25;;
53207;SDS011;39093;52.788;6.940;2022-11-15T14:55:25;8.32;;;2.95;;
53207;SDS011;39093;52.788;6.940;2022-11-15T14:57:55;4.75;;;2.78;;
53207;SDS011;39093;52.788;6.940;2022-11-15T15:00:22;5.00;;;3.25;;
53207;SDS011;39093;52.788;6.940;2022-11-15T15:02:50;5.45;;;3.08;;
53207;SDS011;39093;52.788;6.940;2022-11-15T15:06:02;6.30;;;2.67;;
53207;SDS011;39093;52.788;6.940;2022-11-15T15:08:10;5.32;;;3.28;;
53207;SDS011;39093;52.788;6.940;2022-11-15T15:10:38;17.13;;;9.07;;
53207;SDS011;39093;52.788;6.940;2022-11-15T15:13:29;7.38;;;4.18;;
53207;SDS011;39093;52.788;6.940;2022-11-15T15:15:56;3.53;;;2.83;;
53207;SDS011;39093;52.788;6.940;2022-11-15T15:18:23;12.50;;;3.58;;
53207;SDS011;39093;52.788;6.940;2022-11-15T15:20:54;4.35;;;2.20;;
53207;SDS011;39093;52.788;6.940;2022-11-15T15:23:24;3.13;;;2.13;;
53207;SDS011;39093;52.788;6.940;2022-11-15T15:25:53;5.45;;;1.90;;
53207;SDS011;39093;52.788;6.940;2022-11-15T15:28:19;3.65;;;1.65;;
53207;SDS011;39093;52.788;6.940;2022-11-15T15:30:46;2.42;;;1.40;;
53207;SDS011;39093;52.788;6.940;2022-11-15T15:33:13;4.28;;;1.40;;
53207;SDS011;39093;52.788;6.940;2022-11-15T15:35:40;7.32;;;3.00;;
53207;SDS011;39093;52.788;6.940;2022-11-15T15:38:09;2.78;;;2.10;;
53207;SDS011;39093;52.788;6.940;2022-11-15T15:40:38;4.00;;;2.15;;
53207;SDS011;39093;52.788;6.940;2022-11-15T15:43:05;3.85;;;2.15;;
53207;SDS011;39093;52.788;6.940;2022-11-15T15:45:36;2.97;;;1.33;;
53207;SDS011;39093;52.788;6.940;2022-11-15T15:48:05;3.63;;;1.50;;
53207;SDS011;39093;52.788;6.940;2022-11-15T15:50:35;3.40;;;1.40;;
53207;SDS011;39093;52.788;6.940;2022-11-15T15:53:02;2.95;;;1.45;;
53207;SDS011;39093;52.788;6.940;2022-11-15T15:55:30;7.03;;;2.05;;
53207;SDS011;39093;52.788;6.940;2022-11-15T15:57:57;3.90;;;1.50;;
53207;SDS011;39093;52.788;6.940;2022-11-15T16:00:25;4.10;;;1.75;;
53207;SDS011;39093;52.788;6.940;2022-11-15T16:02:52;5.63;;;2.17;;
53207;SDS011;39093;52.788;6.940;2022-11-15T16:05:20;4.32;;;2.70;;
53207;SDS011;39093;52.788;6.940;2022-11-15T16:07:47;7.38;;;2.67;;
53207;SDS011;39093;52.788;6.940;2022-11-15T16:12:42;5.07;;;2.63;;
53207;SDS011;39093;52.788;6.940;2022-11-15T16:15:08;4.88;;;1.60;;
53207;SDS011;39093;52.788;6.940;2022-11-15T16:17:37;6.05;;;1.70;;
53207;SDS011;39093;52.788;6.940;2022-11-15T16:20:06;5.65;;;3.08;;
53207;SDS011;39093;52.788;6.940;2022-11-15T16:22:41;3.28;;;1.80;;
53207;SDS011;39093;52.788;6.940;2022-11-15T16:25:08;3.25;;;1.42;;
53207;SDS011;39093;52.788;6.940;2022-11-15T16:27:35;2.95;;;1.30;;
53207;SDS011;39093;52.788;6.940;2022-11-15T16:30:04;2.80;;;1.10;;
53207;SDS011;39093;52.788;6.940;2022-11-15T16:32:36;5.15;;;2.17;;
53207;SDS011;39093;52.788;6.940;2022-11-15T16:35:03;3.03;;;1.98;;
53207;SDS011;39093;52.788;6.940;2022-11-15T16:37:30;3.60;;;1.65;;
53207;SDS011;39093;52.788;6.940;2022-11-15T16:39:57;3.58;;;1.15;;
53207;SDS011;39093;52.788;6.940;2022-11-15T16:42:26;7.07;;;2.08;;
53207;SDS011;39093;52.788;6.940;2022-11-15T16:44:53;6.38;;;3.83;;
53207;SDS011;39093;52.788;6.940;2022-11-15T16:47:20;3.33;;;1.80;;
53207;SDS011;39093;52.788;6.940;2022-11-15T16:49:48;4.97;;;1.05;;
53207;SDS011;39093;52.788;6.940;2022-11-15T16:52:14;3.38;;;1.67;;
53207;SDS011;39093;52.788;6.940;2022-11-15T16:54:46;3.92;;;1.35;;